F\v Desperado — FVFQ — position and weather

sailwx.info

Track history (hours):
 
Tides and Currents Weather Stations Pressure Air Temp Water Temp Dewpoint Dewpoint Depression Visibility Wind Speed Wind Dir Waves Ship Positions

F\v Desperado

Last reported at 2014-Aug-20 04:33 UTC. Time now 2014-Aug-22 04:02 UTC.
Position N 46°19' W 002°05'.

Type: Fishing. MMSI: 228312000.

Date/timePositionNaut miles runAvg speedWind from/ knotsBaromVisibWave heightAir tempDewpointWater temp
2014-Aug-20 04:33N 46°19' W 002°05'9 8.5
2014-Aug-20 03:33N 46°24' W 001°55'7 7.3
2014-Aug-20 02:33N 46°30' W 001°48'0 0.3
2014-Aug-20 01:33N 46°30' W 001°47'5 5.0
2014-Aug-20 00:33N 46°26' W 001°52'12 0.3
2014-Aug-18 05:29N 46°19' W 002°06'7 7.7
2014-Aug-18 04:33N 46°23' W 001°58'8 7.7
2014-Aug-18 03:33N 46°27' W 001°48'3 2.7
2014-Aug-18 02:33N 46°30' W 001°47'0 0.2
2014-Aug-18 01:33N 46°30' W 001°47'3 3.0
2014-Aug-18 00:33N 46°27' W 001°49'16 0.4
2014-Aug-16 06:31N 46°20' W 002°10'8 8.2
2014-Aug-16 05:33N 46°23' W 001°59'8 7.9
2014-Aug-16 04:33N 46°27' W 001°50'3 3.1
2014-Aug-16 03:33N 46°30' W 001°47'0 0.0
2014-Aug-16 02:33N 46°30' W 001°47'0 0.0
2014-Aug-16 01:33N 46°30' W 001°47'0 0.0
2014-Aug-16 00:33N 46°30' W 001°47'0 0.0
2014-Aug-15 23:33N 46°30' W 001°47'1 0.8
2014-Aug-15 22:33N 46°29' W 001°47'7 7.2
2014-Aug-15 21:32N 46°25' W 001°56'15 0.4
2014-Aug-14 07:31N 46°17' W 002°14'8 8.2
2014-Aug-14 06:33N 46°21' W 002°04'8 7.7
2014-Aug-14 05:33N 46°25' W 001°54'7 6.7
2014-Aug-14 04:33N 46°30' W 001°48'0 0.4
2014-Aug-14 03:33N 46°30' W 001°47'0 0.0
2014-Aug-14 02:33N 46°30' W 001°47'1 1.4
2014-Aug-14 01:33N 46°29' W 001°47'9 7.6
2014-Aug-14 00:19N 46°23' W 001°58'6 0.1
2014-Aug-12 04:33N 46°20' W 002°05'8 7.6
2014-Aug-12 03:33N 46°24' W 001°56'7 7.4
2014-Aug-12 02:34N 46°28' W 001°47'2 1.7
2014-Aug-12 01:33N 46°30' W 001°47'3 3.2
2014-Aug-12 00:34N 46°27' W 001°50'14 0.7
2014-Aug-11 04:33N 46°19' W 002°06'8 7.9
2014-Aug-11 03:33N 46°24' W 001°56'7 7.4
2014-Aug-11 02:33N 46°28' W 001°48'2 2.0
2014-Aug-11 01:33N 46°30' W 001°47'5 5.1
2014-Aug-11 00:33N 46°26' W 001°52'  
Track history (hours):
 
Tides and Currents Weather Stations Pressure Air Temp Water Temp Dewpoint Dewpoint Depression Visibility Wind Speed Wind Dir Waves Ship Positions

F\v Desperado

Last reported at 2014-Aug-20 04:33 UTC. Time now 2014-Aug-22 04:02 UTC.
Position N 46°19' W 002°05'.

Type: Fishing. MMSI: 228312000.

Date/timePositionNaut miles runAvg speedWind from/ knotsBaromVisibWave heightAir tempDewpointWater temp
2014-Aug-20 04:33N 46°19' W 002°05'9 8.5
2014-Aug-20 03:33N 46°24' W 001°55'7 7.3
2014-Aug-20 02:33N 46°30' W 001°48'0 0.3
2014-Aug-20 01:33N 46°30' W 001°47'5 5.0
2014-Aug-20 00:33N 46°26' W 001°52'12 0.3
2014-Aug-18 05:29N 46°19' W 002°06'7 7.7
2014-Aug-18 04:33N 46°23' W 001°58'8 7.7
2014-Aug-18 03:33N 46°27' W 001°48'3 2.7
2014-Aug-18 02:33N 46°30' W 001°47'0 0.2
2014-Aug-18 01:33N 46°30' W 001°47'3 3.0
2014-Aug-18 00:33N 46°27' W 001°49'16 0.4
2014-Aug-16 06:31N 46°20' W 002°10'8 8.2
2014-Aug-16 05:33N 46°23' W 001°59'8 7.9
2014-Aug-16 04:33N 46°27' W 001°50'3 3.1
2014-Aug-16 03:33N 46°30' W 001°47'0 0.0
2014-Aug-16 02:33N 46°30' W 001°47'0 0.0
2014-Aug-16 01:33N 46°30' W 001°47'0 0.0
2014-Aug-16 00:33N 46°30' W 001°47'0 0.0
2014-Aug-15 23:33N 46°30' W 001°47'1 0.8
2014-Aug-15 22:33N 46°29' W 001°47'7 7.2
2014-Aug-15 21:32N 46°25' W 001°56'15 0.4
2014-Aug-14 07:31N 46°17' W 002°14'8 8.2
2014-Aug-14 06:33N 46°21' W 002°04'8 7.7
2014-Aug-14 05:33N 46°25' W 001°54'7 6.7
2014-Aug-14 04:33N 46°30' W 001°48'0 0.4
2014-Aug-14 03:33N 46°30' W 001°47'0 0.0
2014-Aug-14 02:33N 46°30' W 001°47'1 1.4
2014-Aug-14 01:33N 46°29' W 001°47'9 7.6
2014-Aug-14 00:19N 46°23' W 001°58'6 0.1
2014-Aug-12 04:33N 46°20' W 002°05'8 7.6
2014-Aug-12 03:33N 46°24' W 001°56'7 7.4
2014-Aug-12 02:34N 46°28' W 001°47'2 1.7
2014-Aug-12 01:33N 46°30' W 001°47'3 3.2
2014-Aug-12 00:34N 46°27' W 001°50'14 0.7
2014-Aug-11 04:33N 46°19' W 002°06'8 7.9
2014-Aug-11 03:33N 46°24' W 001°56'7 7.4
2014-Aug-11 02:33N 46°28' W 001°48'2 2.0
2014-Aug-11 01:33N 46°30' W 001°47'5 5.1
2014-Aug-11 00:33N 46°26' W 001°52'  

Dump ship's entire track history